Time;durP1;ratioP1;P1;durP2;ratioP2;P2;SDS_P1;SDS_P2;PMS_P1;PMS_P2;Temp;Humidity;BMP_temperature;BMP_pressure;BME280_temperature;BME280_humidity;BME280_pressure;Samples;Min_cycle;Max_cycle;Signal;HPM_P1;HPM_P2
2023/10/10 00:00:54;;;;;;;1.60;0.82;;;;;;;10.17;90.01;99929.75;5093809;28;20512;-68
2023/10/10 00:03:27;;;;;;;1.15;1.05;;;;;;;10.19;90.01;99928.91;5094102;28;20047;-68
2023/10/10 00:05:58;;;;;;;0.70;0.70;;;;;;;10.18;89.90;99921.25;5093520;28;20048;-68
2023/10/10 00:08:33;;;;;;;2.42;1.45;;;;;;;10.19;89.81;99922.97;5093769;28;20047;-68
2023/10/10 00:11:09;;;;;;;0.80;0.80;;;;;;;10.23;90.47;99925.53;5093565;28;20052;-68
2023/10/10 00:13:42;;;;;;;0.88;0.88;;;;;;;10.21;90.37;99911.91;5093695;28;20114;-69
2023/10/10 00:16:13;;;;;;;1.83;1.25;;;;;;;10.19;90.42;99913.63;5093329;28;20127;-68
2023/10/10 00:18:49;;;;;;;0.60;0.60;;;;;;;10.24;90.52;99906.84;5093390;28;20052;-68
2023/10/10 00:21:23;;;;;;;;;;;;;;;10.26;90.45;99910.25;5093740;28;20101;-68
2023/10/10 00:23:54;;;;;;;0.60;0.60;;;;;;;10.24;90.05;99917.03;5093383;28;19920;-68
2023/10/10 00:26:26;;;;;;;1.90;1.13;;;;;;;10.27;90.39;99923.84;5093872;28;20044;-68
2023/10/10 00:28:56;;;;;;;1.17;1.08;;;;;;;10.28;90.34;99918.75;5093486;28;20493;-68
2023/10/10 00:31:31;;;;;;;0.70;0.70;;;;;;;10.34;90.15;99918.75;5093324;28;20052;-68
2023/10/10 00:34:00;;;;;;;0.52;0.52;;;;;;;10.35;89.76;99925.56;5094994;28;20040;-68
2023/10/10 00:36:33;;;;;;;2.73;1.97;;;;;;;10.44;90.19;99930.72;5097104;28;20059;-68
2023/10/10 00:39:07;;;;;;;0.65;0.65;;;;;;;10.44;90.08;99915.41;5097399;28;20044;-68
2023/10/10 00:41:44;;;;;;;2.03;1.85;;;;;;;10.44;90.22;99925.59;5095965;28;20494;-68
2023/10/10 00:44:15;;;;;;;1.80;1.67;;;;;;;10.43;89.88;99918.81;5097060;28;20105;-68
2023/10/10 00:46:47;;;;;;;1.48;1.33;;;;;;;10.41;89.86;99915.41;5097201;28;20040;-68
2023/10/10 00:49:17;;;;;;;1.63;1.33;;;;;;;10.39;90.05;99914.53;5096957;28;20134;-68
2023/10/10 00:51:47;;;;;;;2.55;1.40;;;;;;;10.35;90.31;99920.47;5095815;28;20056;-68
2023/10/10 00:54:26;;;;;;;;;;;;;;;10.31;89.87;99921.31;5097539;28;20406;-67
2023/10/10 00:57:00;;;;;;;2.60;1.45;;;;;;;10.31;89.63;99921.31;5095601;28;19924;-68
2023/10/10 00:59:34;;;;;;;2.67;2.22;;;;;;;10.41;89.67;99930.72;5096734;28;20044;-67
2023/10/10 01:02:04;;;;;;;0.93;0.90;;;;;;;10.43;89.86;99938.38;5096664;28;20040;-67
2023/10/10 01:04:48;;;;;;;;;;;;;;;10.49;89.77;99939.22;5097391;28;20047;-68
2023/10/10 01:07:19;;;;;;;4.72;1.65;;;;;;;10.49;89.91;99929.03;5095876;28;19927;-68
2023/10/10 01:09:59;;;;;;;0.88;0.88;;;;;;;10.49;89.77;99923.94;5096828;28;20052;-67
2023/10/10 01:12:35;;;;;;;0.85;0.85;;;;;;;10.53;89.74;99919.69;5095592;28;20043;-68
2023/10/10 01:15:14;;;;;;;1.42;1.33;;;;;;;10.50;89.63;99923.09;5097091;28;20048;-67
2023/10/10 01:17:45;;;;;;;2.33;2.13;;;;;;;10.51;89.36;99929.06;5096472;28;20043;-68
2023/10/10 01:20:25;;;;;;;1.58;1.48;;;;;;;10.52;89.48;99923.94;5096294;28;20052;-67
2023/10/10 01:22:56;;;;;;;1.05;0.98;;;;;;;10.51;89.65;99932.44;5096117;28;20059;-68
2023/10/10 01:25:42;;;;;;;1.58;1.48;;;;;;;10.51;89.63;99929.88;5096760;28;20048;-68
2023/10/10 01:28:27;;;;;;;2.25;1.10;;;;;;;10.54;89.80;99935.00;5096181;28;20119;-67
2023/10/10 01:30:59;;;;;;;1.65;0.95;;;;;;;10.61;89.76;99928.22;5096425;28;20121;-67
2023/10/10 01:36:11;;;;;;;1.33;1.15;;;;;;;10.55;89.79;99923.09;5094888;28;20098;-67
2023/10/10 01:39:26;;;;;;;1.20;1.10;;;;;;;10.49;89.50;99928.16;5095017;28;20500;-67
2023/10/10 01:41:55;;;;;;;0.85;0.75;;;;;;;10.51;90.00;99937.53;5096206;28;20130;-67
2023/10/10 01:44:27;;;;;;;0.50;0.50;;;;;;;10.52;89.64;99943.50;5096077;28;20047;-67
2023/10/10 01:46:58;;;;;;;0.77;0.77;;;;;;;10.55;89.78;99944.38;5094621;28;20040;-68
2023/10/10 01:49:30;;;;;;;0.90;0.90;;;;;;;10.56;89.87;99946.06;5094504;28;20119;-68
2023/10/10 01:51:59;;;;;;;1.30;1.20;;;;;;;10.60;89.55;99947.81;5094524;28;20067;-67
2023/10/10 01:54:34;;;;;;;1.20;1.10;;;;;;;10.59;89.42;99953.75;5096223;28;20055;-67
2023/10/10 01:57:07;;;;;;;1.25;1.15;;;;;;;10.58;89.44;99954.56;5095613;28;20048;-67
2023/10/10 01:59:38;;;;;;;2.15;1.25;;;;;;;10.60;89.88;99952.03;5095499;28;20044;-67
2023/10/10 02:02:11;;;;;;;0.63;0.63;;;;;;;10.54;89.75;99952.88;5095493;28;20580;-67
2023/10/10 02:04:41;;;;;;;1.45;1.30;;;;;;;10.53;89.88;99961.34;5095448;28;20048;-67
2023/10/10 02:07:23;;;;;;;1.85;1.13;;;;;;;10.51;89.80;99947.75;5095677;28;20549;-67
2023/10/10 02:10:00;;;;;;;1.13;1.02;;;;;;;10.51;89.36;99957.13;5095605;28;20036;-67
2023/10/10 02:12:33;;;;;;;0.93;0.88;;;;;;;10.49;89.80;99954.53;5077637;28;20147;-67
2023/10/10 02:15:11;;;;;;;0.65;0.65;;;;;;;10.51;89.47;99946.91;5094081;28;20040;-67
2023/10/10 02:17:50;;;;;;;0.60;0.60;;;;;;;10.52;89.71;99944.34;5094280;28;20071;-67
2023/10/10 02:20:49;;;;;;;1.58;0.95;;;;;;;10.59;89.28;99956.28;5093945;28;20537;-67
2023/10/10 02:23:31;;;;;;;1.17;1.08;;;;;;;10.67;89.51;99958.88;5093613;28;20105;-68
2023/10/10 02:26:23;;;;;;;0.60;0.60;;;;;;;10.73;89.33;99958.88;5093797;28;20122;-68
2023/10/10 02:29:16;;;;;;;1.42;1.33;;;;;;;10.72;89.42;99958.03;5093827;28;20047;-68
2023/10/10 02:31:46;;;;;;;1.55;1.20;;;;;;;10.72;89.10;99959.75;5094244;28;20043;-68
2023/10/10 02:34:19;;;;;;;0.77;0.77;;;;;;;10.71;89.36;99961.44;5095118;28;20126;-68
2023/10/10 02:37:05;;;;;;;0.60;0.60;;;;;;;10.74;88.87;99964.00;5094922;28;20044;-67
2023/10/10 02:39:41;;;;;;;0.77;0.77;;;;;;;10.75;89.19;99963.16;5093534;28;20054;-68
2023/10/10 02:42:19;;;;;;;1.00;0.93;;;;;;;10.72;88.93;99963.13;5095023;28;20507;-68
2023/10/10 02:44:52;;;;;;;0.70;0.70;;;;;;;10.65;88.62;99966.50;5094887;28;20048;-68
2023/10/10 02:47:30;;;;;;;1.63;1.30;;;;;;;10.62;88.63;99961.41;5094893;28;20047;-68
2023/10/10 02:50:09;;;;;;;0.85;0.85;;;;;;;10.65;89.05;99958.84;5093496;28;20081;-68
2023/10/10 02:52:45;;;;;;;0.95;0.90;;;;;;;10.63;88.86;99963.09;5094916;28;20048;-68
2023/10/10 02:55:22;;;;;;;0.90;0.90;;;;;;;10.61;88.75;99964.81;5094445;28;20044;-68
2023/10/10 02:57:54;;;;;;;0.50;0.50;;;;;;;10.61;89.04;99961.38;5094427;28;20048;-68
2023/10/10 03:00:29;;;;;;;1.30;1.20;;;;;;;10.69;89.05;99972.50;5093550;28;20131;-68
2023/10/10 03:03:02;;;;;;;1.25;1.15;;;;;;;10.74;88.82;99960.59;5094319;28;20117;-68
2023/10/10 03:08:14;;;;;;;1.17;1.08;;;;;;;10.66;89.49;99982.69;5094261;28;20444;-68
2023/10/10 03:10:53;;;;;;;0.77;0.77;;;;;;;10.63;89.05;99977.56;5093122;28;20533;-67
2023/10/10 03:16:41;;;;;;;1.30;0.75;;;;;;;10.61;89.13;99967.34;5094099;28;20048;-68
2023/10/10 03:33:09;;;;;;;0.57;0.57;;;;;;;10.68;89.48;99946.09;5133027;27;20374;-68
2023/10/10 03:38:43;;;;;;;1.13;1.03;;;;;;;10.65;89.86;99946.09;5132017;28;20122;-68
2023/10/10 05:25:23;;;;;;;1.42;1.33;;;;;;;10.87;91.36;99987.03;5115318;28;20096;-68
2023/10/10 05:27:56;;;;;;;1.42;1.33;;;;;;;10.92;91.77;99991.28;5116219;28;20063;-68
2023/10/10 05:30:39;;;;;;;0.77;0.77;;;;;;;10.94;91.70;99984.47;5114709;28;20070;-68
2023/10/10 05:33:09;;;;;;;1.33;1.23;;;;;;;10.93;91.35;99987.03;5075318;28;20040;-68
2023/10/10 05:35:40;;;;;;;1.42;0.98;;;;;;;10.89;91.56;99993.00;5075221;28;20391;-68
2023/10/10 05:38:09;;;;;;;0.65;0.65;;;;;;;10.83;91.37;99996.38;5074364;28;20425;-68
2023/10/10 05:40:43;;;;;;;1.60;1.50;;;;;;;10.78;91.41;100000.59;5075394;28;20123;-68
2023/10/10 05:43:15;;;;;;;1.30;0.98;;;;;;;10.76;91.23;100000.59;5075505;28;20037;-68
2023/10/10 05:45:44;;;;;;;1.80;1.40;;;;;;;10.77;91.42;99997.19;5075456;28;20056;-68
2023/10/10 05:48:14;;;;;;;2.03;1.83;;;;;;;10.84;91.55;99997.22;5075146;28;20045;-68
2023/10/10 05:50:43;;;;;;;;;;;;;;;10.86;91.53;100000.63;5058033;28;20045;-68
2023/10/10 05:53:12;;;;;;;0.47;0.47;;;;;;;10.89;91.32;99996.41;5055137;28;19964;-68
2023/10/10 05:55:43;;;;;;;1.23;1.13;;;;;;;10.89;91.55;99995.53;5053965;28;20049;-68
2023/10/10 05:58:12;;;;;;;1.42;1.00;;;;;;;10.89;91.51;99995.53;5055210;28;20568;-67
2023/10/10 06:00:44;;;;;;;2.17;1.03;;;;;;;10.85;91.55;100004.00;5053643;28;20467;-67
2023/10/10 06:03:13;;;;;;;0.80;0.80;;;;;;;10.85;91.85;100014.22;5054809;28;20772;-67
2023/10/10 06:05:44;;;;;;;0.73;0.73;;;;;;;10.84;91.67;100018.50;5068173;28;20048;-67
2023/10/10 06:08:13;;;;;;;7.20;6.45;;;;;;;10.86;91.82;100015.94;5080423;28;20495;-67
2023/10/10 06:10:44;;;;;;;1.65;1.55;;;;;;;10.85;91.50;100024.44;5068910;28;20098;-67
2023/10/10 06:13:13;;;;;;;2.95;2.33;;;;;;;10.84;91.74;100017.66;5059858;28;20051;-67
2023/10/10 06:15:43;;;;;;;0.80;0.80;;;;;;;10.85;92.00;100024.44;5067572;28;20055;-67
2023/10/10 06:18:15;;;;;;;1.20;1.05;;;;;;;10.82;91.75;100024.47;5074742;28;20071;-67
2023/10/10 06:20:45;;;;;;;5.13;1.48;;;;;;;10.81;91.75;100027.84;5074464;28;20068;-67
2023/10/10 06:23:35;;;;;;;2.42;1.95;;;;;;;10.75;92.01;100029.53;5060748;28;20037;-67
2023/10/10 06:26:06;;;;;;;2.38;1.55;;;;;;;10.75;92.03;100024.41;5053378;28;20124;-67
2023/10/10 06:28:44;;;;;;;0.82;0.82;;;;;;;10.80;91.70;100031.25;5054336;28;20048;-67
2023/10/10 06:31:19;;;;;;;1.50;1.33;;;;;;;10.86;91.85;100031.28;5066770;28;20055;-67
2023/10/10 06:33:57;;;;;;;3.65;1.38;;;;;;;10.88;91.98;100032.13;5094502;28;20086;-67
2023/10/10 06:36:33;;;;;;;3.05;2.67;;;;;;;10.92;91.99;100031.31;5097611;28;20109;-68
2023/10/10 06:41:47;;;;;;;1.48;1.38;;;;;;;10.86;91.98;100033.81;5094629;28;20407;-67
2023/10/10 06:44:17;;;;;;;0.75;0.73;;;;;;;10.89;91.98;100041.50;5096203;28;21903;-67
2023/10/10 06:46:48;;;;;;;1.45;1.35;;;;;;;10.95;91.85;100041.50;5110767;28;20044;-67
2023/10/10 06:49:20;;;;;;;1.63;1.52;;;;;;;10.98;92.10;100041.53;5097473;27;20401;-67
2023/10/10 06:51:50;;;;;;;1.70;1.60;;;;;;;11.02;92.28;100038.13;5094183;28;20094;-67
2023/10/10 06:54:27;;;;;;;1.17;1.07;;;;;;;11.05;92.15;100040.69;5094071;28;20040;-67
2023/10/10 06:57:05;;;;;;;1.17;1.08;;;;;;;11.06;91.82;100039.88;5094158;28;20039;-67
2023/10/10 06:59:35;;;;;;;0.70;0.70;;;;;;;11.11;92.03;100045.84;5098275;28;20036;-67
2023/10/10 07:02:13;;;;;;;3.13;1.67;;;;;;;11.11;91.99;100044.13;5094282;28;20047;-67
2023/10/10 07:04:43;;;;;;;4.13;2.37;;;;;;;11.11;91.92;100050.94;5094260;28;20044;-68
2023/10/10 07:07:13;;;;;;;0.88;0.80;;;;;;;11.14;91.91;100050.94;5094062;28;20489;-67
2023/10/10 07:09:42;;;;;;;5.90;2.30;;;;;;;11.15;91.97;100050.09;5094240;28;20044;-68
2023/10/10 07:12:14;;;;;;;1.07;0.97;;;;;;;11.18;92.21;100050.13;5095643;28;20036;-67
2023/10/10 07:14:45;;;;;;;2.15;1.40;;;;;;;11.21;92.07;100056.06;5114138;28;20295;-67
2023/10/10 07:17:15;;;;;;;1.67;1.58;;;;;;;11.22;91.96;100049.25;5114084;28;20118;-66
2023/10/10 07:21:04;;;;;;;1.60;1.50;;;;;;;11.20;92.33;100049.28;5111952;28;20048;-67
2023/10/10 07:22:45;;;;;;;1.63;1.52;;;;;;;11.21;92.14;100060.31;5112515;28;20051;-67
2023/10/10 07:25:31;;;;;;;0.80;0.77;;;;;;;11.22;92.08;100050.13;5114054;28;20048;-68
2023/10/10 07:28:04;;;;;;;0.77;0.77;;;;;;;11.27;91.83;100050.13;5114028;28;20054;-67
2023/10/10 07:30:35;;;;;;;1.38;1.27;;;;;;;11.22;92.01;100057.78;5104550;28;20371;-68
2023/10/10 07:33:12;;;;;;;1.55;1.15;;;;;;;11.34;92.38;100068.03;5093588;28;20058;-67
2023/10/10 07:35:53;;;;;;;2.03;1.23;;;;;;;11.37;92.22;100067.19;5093827;28;20048;-67
2023/10/10 07:38:27;;;;;;;1.80;1.70;;;;;;;11.34;92.24;100073.16;5093903;28;20063;-67
2023/10/10 07:40:56;;;;;;;2.05;1.15;;;;;;;11.39;92.09;100070.59;5104690;28;20126;-67
2023/10/10 07:43:27;;;;;;;0.80;0.80;;;;;;;11.43;91.66;100072.31;5114380;28;20032;-67
2023/10/10 07:45:56;;;;;;;2.42;1.83;;;;;;;11.47;92.12;100071.47;5114182;28;20139;-67
2023/10/10 07:48:39;;;;;;;2.00;1.70;;;;;;;11.56;92.10;100074.06;5112431;28;20039;-67
2023/10/10 07:51:08;;;;;;;2.85;1.33;;;;;;;11.56;91.89;100068.09;5113839;28;20486;-67
2023/10/10 07:53:44;;;;;;;1.73;1.45;;;;;;;11.58;92.04;100076.59;5103298;28;20040;-67
2023/10/10 07:56:13;;;;;;;1.77;1.67;;;;;;;11.64;91.71;100090.22;5093669;28;20095;-67
2023/10/10 07:58:49;;;;;;;2.78;1.63;;;;;;;11.66;91.89;100083.41;5093219;28;20044;-67
2023/10/10 08:01:23;;;;;;;2.83;1.38;;;;;;;11.64;91.65;100081.69;5093316;28;20126;-67
2023/10/10 08:03:52;;;;;;;1.63;1.50;;;;;;;11.69;91.84;100086.00;5093756;28;20040;-67
2023/10/10 08:06:22;;;;;;;3.35;2.42;;;;;;;11.68;91.64;100089.44;5103824;28;20060;-67
2023/10/10 08:09:10;;;;;;;2.88;1.88;;;;;;;11.72;91.68;100096.25;5113715;28;20059;-67
2023/10/10 08:11:40;;;;;;;1.63;1.38;;;;;;;11.75;91.61;100098.81;5113898;28;20063;-67
2023/10/10 08:14:11;;;;;;;3.43;2.87;;;;;;;11.76;91.55;100103.06;5103334;28;20082;-67
2023/10/10 08:16:43;;;;;;;2.08;1.88;;;;;;;11.73;91.52;100097.97;5093800;28;20047;-67
2023/10/10 08:19:13;;;;;;;0.95;0.90;;;;;;;11.72;91.56;100101.38;5095977;28;20048;-67
2023/10/10 08:21:49;;;;;;;1.65;1.55;;;;;;;11.70;91.23;100097.97;5097303;28;20068;-67
2023/10/10 08:24:19;;;;;;;4.97;1.67;;;;;;;11.72;91.51;100106.47;5095829;28;20044;-67
2023/10/10 08:26:51;;;;;;;1.70;1.60;;;;;;;11.74;91.43;100102.22;5097498;28;20040;-67
2023/10/10 08:29:25;;;;;;;2.92;1.80;;;;;;;11.73;91.29;100105.66;5096815;28;20079;-67
2023/10/10 08:31:55;;;;;;;2.05;1.85;;;;;;;11.79;91.15;100109.91;5096706;28;20097;-66
2023/10/10 08:34:24;;;;;;;2.13;1.92;;;;;;;11.78;91.26;100116.72;5096986;28;20048;-67
2023/10/10 08:37:02;;;;;;;2.13;1.23;;;;;;;11.83;91.27;100112.44;5096960;28;20036;-67
2023/10/10 08:39:35;;;;;;;1.95;1.75;;;;;;;11.88;91.09;100115.88;5095634;28;20035;-67
2023/10/10 08:42:10;;;;;;;1.83;1.73;;;;;;;11.94;91.01;100118.44;5096519;28;20494;-66
2023/10/10 08:44:42;;;;;;;2.05;1.83;;;;;;;11.97;91.13;100121.00;5108844;28;20069;-67
2023/10/10 08:47:16;;;;;;;2.35;1.88;;;;;;;11.97;90.96;100113.31;5117205;28;20112;-66
2023/10/10 08:49:47;;;;;;;1.98;1.40;;;;;;;11.96;91.00;100116.75;5116828;28;20535;-66
2023/10/10 08:52:19;;;;;;;1.45;1.35;;;;;;;12.03;90.79;100108.22;5096648;28;20128;-66
2023/10/10 08:54:51;;;;;;;1.70;1.13;;;;;;;12.07;90.85;100112.47;5096275;28;20117;-66
2023/10/10 08:57:27;;;;;;;1.77;1.67;;;;;;;12.16;90.80;100121.00;5096596;28;20457;-67
2023/10/10 08:59:58;;;;;;;1.00;1.00;;;;;;;12.18;90.68;100126.97;5096587;28;20516;-66
2023/10/10 09:02:33;;;;;;;2.45;2.20;;;;;;;12.17;90.59;100127.81;5103892;28;20048;-66
2023/10/10 09:05:06;;;;;;;0.50;0.50;;;;;;;12.19;90.39;100133.81;5099277;28;20046;-67
2023/10/10 09:07:39;;;;;;;2.65;1.77;;;;;;;12.24;90.29;100132.13;5098978;27;20051;-66
2023/10/10 09:10:13;;;;;;;1.77;1.65;;;;;;;12.30;90.54;100132.94;5096034;28;20516;-66
2023/10/10 09:12:56;;;;;;;1.40;1.13;;;;;;;12.37;90.55;100128.66;5096164;28;20071;-66
2023/10/10 09:15:27;;;;;;;1.05;1.00;;;;;;;12.35;90.26;100133.81;5101663;28;20405;-66
2023/10/10 09:18:14;;;;;;;1.95;1.60;;;;;;;12.33;89.90;100142.34;5104281;28;20055;-66
2023/10/10 09:20:45;;;;;;;1.88;1.73;;;;;;;12.34;90.14;100133.78;5095984;28;20103;-66
2023/10/10 09:23:23;;;;;;;1.38;0.95;;;;;;;12.35;90.11;100140.63;5096173;28;20052;-67
2023/10/10 09:26:08;;;;;;;4.30;2.65;;;;;;;12.32;89.97;100128.69;5106083;28;20044;-66
2023/10/10 09:28:55;;;;;;;0.82;0.82;;;;;;;12.39;90.02;100114.16;5109710;28;20093;-67
2023/10/10 09:31:31;;;;;;;1.67;1.50;;;;;;;12.46;90.07;100110.75;5095383;28;20044;-67
2023/10/10 09:34:03;;;;;;;1.35;1.25;;;;;;;12.62;90.01;100089.38;5095892;28;20043;-66
2023/10/10 09:36:38;;;;;;;1.88;1.67;;;;;;;12.80;89.89;100099.56;5111680;28;20047;-66
2023/10/10 09:39:25;;;;;;;2.65;1.25;;;;;;;12.96;89.49;100103.78;5114468;28;20040;-67
2023/10/10 09:42:06;;;;;;;2.08;1.20;;;;;;;13.00;89.43;100114.88;5095445;28;20074;-66
2023/10/10 09:47:41;;;;;;;0.75;0.75;;;;;;;13.21;89.29;100127.63;5084688;28;20121;-67
2023/10/10 09:52:53;;;;;;;2.42;1.80;;;;;;;13.21;88.85;100154.13;5093905;28;20046;-67
2023/10/10 09:55:42;;;;;;;4.45;1.92;;;;;;;13.27;89.05;100163.50;5100684;28;20489;-67
2023/10/10 09:58:26;;;;;;;4.35;2.78;;;;;;;13.24;88.70;100159.25;5115565;28;20559;-67
2023/10/10 10:01:04;;;;;;;6.80;2.42;;;;;;;13.22;89.01;100160.94;5115495;28;20370;-67
2023/10/10 10:03:49;;;;;;;1.73;1.40;;;;;;;13.33;88.74;100153.22;5115660;28;20047;-67
2023/10/10 10:06:38;;;;;;;2.65;1.77;;;;;;;13.51;89.14;100149.72;5114706;28;20381;-67
2023/10/10 10:09:45;;;;;;;5.38;2.47;;;;;;;13.59;89.00;100142.84;5115085;28;20488;-67
2023/10/10 10:12:41;;;;;;;2.75;2.05;;;;;;;13.56;88.57;100140.28;5115609;28;20043;-67
2023/10/10 10:15:24;;;;;;;3.30;1.85;;;;;;;13.53;88.27;100140.31;5111493;28;20393;-68
2023/10/10 10:18:11;;;;;;;1.60;1.50;;;;;;;13.57;88.74;100145.41;5113670;28;20042;-67
2023/10/10 10:20:47;;;;;;;2.20;2.00;;;;;;;13.55;88.61;100141.16;5115420;28;20164;-67
2023/10/10 10:23:25;;;;;;;1.58;1.45;;;;;;;13.44;88.95;100134.38;5114931;28;20053;-67
2023/10/10 10:26:04;;;;;;;5.60;1.90;;;;;;;13.36;89.22;100133.53;5106810;28;20055;-68
2023/10/10 10:28:35;;;;;;;4.57;2.50;;;;;;;13.34;89.41;100137.81;5094816;28;20393;-68
2023/10/10 10:31:08;;;;;;;4.38;3.25;;;;;;;13.31;89.31;100130.16;5094551;28;20144;-68
2023/10/10 10:33:52;;;;;;;0.90;0.90;;;;;;;13.28;89.93;100129.31;5094428;28;20047;-68
2023/10/10 10:36:27;;;;;;;2.95;2.20;;;;;;;13.31;90.03;100134.44;5103272;28;20389;-68
2023/10/10 10:41:51;;;;;;;5.55;2.28;;;;;;;13.34;90.31;100127.56;5114213;28;20552;-68
2023/10/10 10:47:39;;;;;;;1.05;0.98;;;;;;;13.48;91.06;100121.53;5094554;28;20052;-68
2023/10/10 10:50:18;;;;;;;1.02;1.02;;;;;;;13.54;90.91;100126.63;5086600;28;20087;-67
2023/10/10 10:52:56;;;;;;;1.35;1.25;;;;;;;13.53;90.98;100122.38;5093227;28;20044;-68
2023/10/10 10:55:27;;;;;;;3.88;3.45;;;;;;;13.52;91.44;100124.06;5100625;28;20043;-68
2023/10/10 10:58:06;;;;;;;1.10;1.02;;;;;;;13.57;91.53;100116.34;5099806;28;20044;-69
2023/10/10 11:00:57;;;;;;;2.22;2.03;;;;;;;13.62;91.40;100125.72;5093949;28;20512;-69
2023/10/10 11:03:33;;;;;;;1.85;1.35;;;;;;;13.66;91.29;100122.28;5094269;28;20498;-69
2023/10/10 11:06:06;;;;;;;1.23;1.15;;;;;;;13.67;91.74;100118.00;5093442;28;20424;-69
2023/10/10 11:11:36;;;;;;;5.05;2.30;;;;;;;13.64;91.26;100125.72;5114773;28;20050;-68
2023/10/10 11:14:18;;;;;;;3.40;1.67;;;;;;;13.61;91.69;100124.00;5114163;28;20092;-69
2023/10/10 11:16:56;;;;;;;9.00;2.42;;;;;;;13.63;91.71;100131.72;5112015;28;20040;-69
2023/10/10 11:19:38;;;;;;;1.77;1.67;;;;;;;13.69;91.61;100137.66;5110006;28;20110;-69
2023/10/10 11:22:13;;;;;;;1.50;1.40;;;;;;;13.73;91.59;100133.34;5094294;28;20386;-69
2023/10/10 11:24:49;;;;;;;3.45;2.67;;;;;;;13.78;91.51;100129.03;5092718;28;20444;-69
2023/10/10 11:27:21;;;;;;;1.67;1.58;;;;;;;13.79;91.50;100117.91;5095298;28;20047;-69
2023/10/10 11:29:52;;;;;;;6.07;2.10;;;;;;;13.81;91.29;100116.19;5093960;28;20056;-69
2023/10/10 11:32:29;;;;;;;9.63;1.88;;;;;;;13.82;91.27;100117.91;5093397;28;20052;-70
2023/10/10 11:35:17;;;;;;;4.13;2.35;;;;;;;13.91;91.41;100122.97;5093575;28;20044;-69
2023/10/10 11:37:58;;;;;;;4.80;2.47;;;;;;;13.96;91.22;100116.09;5093203;28;20133;-69
2023/10/10 11:40:32;;;;;;;3.20;2.35;;;;;;;13.97;91.63;100107.50;5093683;28;20044;-70
2023/10/10 11:43:04;;;;;;;2.72;2.10;;;;;;;14.00;91.24;100117.75;5093561;28;20059;-70
2023/10/10 11:45:39;;;;;;;5.10;2.03;;;;;;;13.99;91.54;100116.03;5093504;28;20131;-70
2023/10/10 11:48:14;;;;;;;4.10;2.58;;;;;;;14.00;91.08;100128.03;5107580;28;20046;-70
2023/10/10 11:50:46;;;;;;;4.22;3.83;;;;;;;13.98;90.74;100130.63;5093493;28;20066;-70
2023/10/10 11:53:19;;;;;;;3.17;2.03;;;;;;;14.04;90.74;100125.44;5095273;28;20375;-70
2023/10/10 11:55:52;;;;;;;4.57;2.65;;;;;;;14.05;90.71;100116.88;5097443;28;20046;-70
2023/10/10 11:58:21;;;;;;;3.65;2.63;;;;;;;14.11;90.63;100121.94;5114690;28;20043;-70
2023/10/10 12:00:59;;;;;;;1.87;1.50;;;;;;;14.11;90.57;100126.22;5116853;28;20042;-70
2023/10/10 12:03:41;;;;;;;3.53;2.35;;;;;;;14.09;90.82;100126.25;5117889;28;20057;-70
2023/10/10 12:06:17;;;;;;;6.63;3.47;;;;;;;14.12;90.37;100117.66;5116919;28;20035;-72
2023/10/10 12:08:50;;;;;;;2.10;1.90;;;;;;;14.17;90.57;100115.91;5097377;28;20056;-70
2023/10/10 12:11:21;;;;;;;5.03;2.25;;;;;;;14.27;90.26;100114.13;5100207;28;20035;-70
2023/10/10 12:13:54;;;;;;;3.03;2.13;;;;;;;14.35;90.37;100110.63;5117591;28;20055;-70
2023/10/10 12:16:23;;;;;;;2.03;1.80;;;;;;;14.40;90.47;100114.03;5108924;28;20509;-71
2023/10/10 12:18:54;;;;;;;2.65;1.65;;;;;;;14.37;90.37;100108.91;5097373;28;20043;-70
2023/10/10 12:21:23;;;;;;;;;;;;;;;14.39;89.92;100107.19;5097494;28;20497;-70
2023/10/10 12:23:55;;;;;;;1.30;1.10;;;;;;;14.45;89.97;100114.84;5100348;28;19926;-70
2023/10/10 12:26:30;;;;;;;2.90;2.60;;;;;;;14.49;90.02;100111.38;5110308;28;20052;-70
2023/10/10 12:29:00;;;;;;;1.63;1.52;;;;;;;14.50;90.16;100105.38;5116213;28;20050;-70
2023/10/10 12:31:33;;;;;;;4.43;3.47;;;;;;;14.48;89.46;100112.25;5099212;28;20043;-70
2023/10/10 12:34:02;;;;;;;2.42;2.22;;;;;;;14.54;89.86;100099.31;5105512;28;20070;-70
2023/10/10 12:36:32;;;;;;;1.87;1.33;;;;;;;14.58;89.79;100098.44;5105239;28;20074;-70
2023/10/10 12:39:04;;;;;;;2.38;2.17;;;;;;;14.59;90.00;100095.00;5113143;28;20337;-70
2023/10/10 12:41:45;;;;;;;2.55;2.00;;;;;;;14.67;89.93;100110.34;5117353;28;20397;-71
2023/10/10 12:44:15;;;;;;;1.25;1.13;;;;;;;14.72;89.84;100106.88;5117000;28;20061;-70
2023/10/10 12:46:44;;;;;;;1.45;1.35;;;;;;;14.72;89.90;100106.00;5117183;27;20100;-70
2023/10/10 12:49:13;;;;;;;4.70;3.43;;;;;;;14.71;89.44;100114.56;5109874;28;20539;-70
2023/10/10 12:51:44;;;;;;;3.38;3.00;;;;;;;14.62;89.20;100107.81;5116892;28;20507;-71
2023/10/10 12:54:17;;;;;;;2.95;2.65;;;;;;;14.57;89.21;100112.16;5116916;28;20044;-70
2023/10/10 12:56:55;;;;;;;2.25;1.77;;;;;;;14.57;89.07;100107.00;5116658;28;20044;-70
2023/10/10 12:59:28;;;;;;;2.30;1.73;;;;;;;14.61;89.62;100110.41;5110059;28;20044;-70
2023/10/10 13:02:03;;;;;;;11.70;2.75;;;;;;;14.63;89.27;100101.81;5096551;28;20061;-70
2023/10/10 13:04:32;;;;;;;2.20;1.88;;;;;;;14.66;89.34;100101.78;5095775;28;20052;-70
2023/10/10 13:07:03;;;;;;;1.80;1.58;;;;;;;14.70;89.07;100100.03;5096535;28;20151;-70
2023/10/10 13:09:37;;;;;;;6.75;3.42;;;;;;;14.71;89.43;100100.00;5115395;28;20119;-70
2023/10/10 13:12:07;;;;;;;4.65;1.40;;;;;;;14.70;89.51;100098.31;5114740;28;20042;-70
2023/10/10 13:14:38;;;;;;;3.45;2.95;;;;;;;14.71;89.66;100094.88;5107322;28;20050;-70
2023/10/10 13:17:28;;;;;;;3.17;2.67;;;;;;;14.76;89.36;100093.09;5107842;28;20116;-70
2023/10/10 13:19:59;;;;;;;5.50;3.88;;;;;;;14.76;89.40;100093.09;5116606;28;20520;-71
2023/10/10 13:22:29;;;;;;;7.03;2.70;;;;;;;14.71;89.60;100084.59;5110596;28;20059;-70
2023/10/10 13:24:59;;;;;;;1.83;1.67;;;;;;;14.72;89.59;100086.31;5095624;28;20039;-70
2023/10/10 13:27:29;;;;;;;2.50;1.33;;;;;;;14.72;89.20;100091.44;5096044;28;20093;-70
2023/10/10 13:29:58;;;;;;;3.58;1.83;;;;;;;14.71;89.16;100094.88;5094525;28;20048;-71
2023/10/10 13:32:27;;;;;;;2.70;2.03;;;;;;;14.72;89.55;100091.44;5095403;28;20052;-70
2023/10/10 13:34:56;;;;;;;2.45;1.83;;;;;;;14.72;89.51;100086.31;5095565;28;20044;-71
2023/10/10 13:37:25;;;;;;;1.63;1.52;;;;;;;14.71;89.05;100084.59;5095723;28;20405;-71
2023/10/10 13:39:55;;;;;;;5.97;2.80;;;;;;;14.68;89.12;100088.94;5095620;28;20051;-71
2023/10/10 13:42:24;;;;;;;2.08;1.85;;;;;;;14.68;89.40;100083.78;5095715;28;20269;-71
2023/10/10 13:45:09;;;;;;;1.90;1.43;;;;;;;14.72;89.38;100081.16;5095374;28;20047;-71
2023/10/10 13:47:40;;;;;;;9.70;2.85;;;;;;;14.76;89.44;100076.81;5095335;28;20055;-70
2023/10/10 13:52:48;;;;;;;4.00;2.70;;;;;;;14.73;89.56;100090.56;5094390;28;20044;-71
2023/10/10 13:55:18;;;;;;;3.35;2.60;;;;;;;14.72;89.47;100086.31;5095374;28;20035;-71
2023/10/10 13:57:47;;;;;;;2.78;2.28;;;;;;;14.75;89.60;100085.44;5095100;28;20485;-71
2023/10/10 14:00:29;;;;;;;2.57;1.87;;;;;;;14.77;89.41;100088.81;5095210;28;20123;-71
2023/10/10 14:03:03;;;;;;;6.50;2.25;;;;;;;14.75;89.47;100086.28;5095097;28;20056;-71
2023/10/10 14:05:34;;;;;;;12.10;3.03;;;;;;;14.74;89.75;100088.84;5095893;28;20135;-71
2023/10/10 14:08:07;;;;;;;2.90;1.88;;;;;;;14.73;89.55;100082.03;5095691;28;20040;-70
2023/10/10 14:10:38;;;;;;;3.20;2.08;;;;;;;14.72;89.81;100090.59;5095002;28;20048;-70
2023/10/10 14:15:57;;;;;;;3.90;2.58;;;;;;;14.65;90.19;100094.94;5093850;28;20051;-71
2023/10/10 14:18:29;;;;;;;2.75;2.35;;;;;;;14.66;90.20;100093.25;5094802;28;20090;-70
2023/10/10 14:21:08;;;;;;;3.75;3.10;;;;;;;14.66;90.33;100091.50;5094780;28;20071;-71
2023/10/10 14:23:39;;;;;;;2.78;2.45;;;;;;;14.67;90.29;100095.78;5094980;28;20396;-72
2023/10/10 14:26:17;;;;;;;4.15;3.40;;;;;;;14.71;90.02;100094.88;5095106;28;20554;-70
2023/10/10 14:28:51;;;;;;;2.28;2.08;;;;;;;14.69;89.96;100091.47;5094915;28;20521;-71
2023/10/10 14:31:23;;;;;;;4.95;2.95;;;;;;;14.67;89.94;100089.78;5094893;28;20056;-70
2023/10/10 14:33:54;;;;;;;6.65;2.95;;;;;;;14.66;90.30;100085.53;5094765;28;20493;-71
2023/10/10 14:36:23;;;;;;;6.18;4.00;;;;;;;14.66;90.15;100096.63;5094718;28;20498;-71